sensor_id;sensor_type;location;lat;lon;timestamp;pressure;altitude;pressure_sealevel;temperature;humidity
41800;BME280;27468;47.460;19.034;2023-04-08T00:02:02;100539.78;;;5.27;82.59
41800;BME280;27468;47.460;19.034;2023-04-08T00:04:27;100600.97;;;5.71;82.58
41800;BME280;27468;47.460;19.034;2023-04-08T00:06:53;100616.63;;;5.61;82.58
41800;BME280;27468;47.460;19.034;2023-04-08T00:09:19;100624.53;;;5.87;82.31
41800;BME280;27468;47.460;19.034;2023-04-08T00:11:44;100568.66;;;5.58;82.36
41800;BME280;27468;47.460;19.034;2023-04-08T00:14:10;100592.22;;;5.66;82.37
41800;BME280;27468;47.460;19.034;2023-04-08T00:16:35;100620.97;;;5.58;83.08
41800;BME280;27468;47.460;19.034;2023-04-08T00:19:01;100595.53;;;5.25;83.29
41800;BME280;27468;47.460;19.034;2023-04-08T00:21:26;100519.53;;;4.82;83.44
41800;BME280;27468;47.460;19.034;2023-04-08T00:23:52;100571.91;;;5.04;83.88
41800;BME280;27468;47.460;19.034;2023-04-08T00:26:18;100582.50;;;5.36;83.36
41800;BME280;27468;47.460;19.034;2023-04-08T00:28:44;100558.91;;;5.14;83.63
41800;BME280;27468;47.460;19.034;2023-04-08T00:31:09;100634.91;;;5.60;83.72
41800;BME280;27468;47.460;19.034;2023-04-08T00:33:35;100564.97;;;5.06;83.09
41800;BME280;27468;47.460;19.034;2023-04-08T00:36:00;100564.97;;;5.07;83.24
41800;BME280;27468;47.460;19.034;2023-04-08T00:38:26;100532.69;;;5.01;83.38
41800;BME280;27468;47.460;19.034;2023-04-08T00:40:51;100616.53;;;5.42;83.59
41800;BME280;27468;47.460;19.034;2023-04-08T00:43:17;100555.41;;;5.14;83.56
41800;BME280;27468;47.460;19.034;2023-04-08T00:45:45;100545.78;;;5.02;83.15
41800;BME280;27468;47.460;19.034;2023-04-08T00:48:10;100554.53;;;5.13;83.21
41800;BME280;27468;47.460;19.034;2023-04-08T00:50:36;100593.03;;;5.49;82.66
41800;BME280;27468;47.460;19.034;2023-04-08T00:53:01;100526.63;;;5.05;82.90
41800;BME280;27468;47.460;19.034;2023-04-08T00:55:27;100547.59;;;5.21;82.56
41800;BME280;27468;47.460;19.034;2023-04-08T00:57:52;100554.59;;;5.27;82.41
41800;BME280;27468;47.460;19.034;2023-04-08T01:00:18;100610.50;;;5.58;82.30
41800;BME280;27468;47.460;19.034;2023-04-08T01:03:18;100642.00;;;5.88;82.24
41800;BME280;27468;47.460;19.034;2023-04-08T01:06:11;100660.28;;;5.81;82.36
41800;BME280;27468;47.460;19.034;2023-04-08T01:08:39;100642.84;;;5.83;82.50
41800;BME280;27468;47.460;19.034;2023-04-08T01:11:10;100632.38;;;5.77;82.33
41800;BME280;27468;47.460;19.034;2023-04-08T01:13:39;100579.97;;;5.51;82.27
41800;BME280;27468;47.460;19.034;2023-04-08T01:16:07;100582.56;;;5.48;82.72
41800;BME280;27468;47.460;19.034;2023-04-08T01:18:35;100647.19;;;5.84;82.70
41800;BME280;27468;47.460;19.034;2023-04-08T01:21:02;100644.56;;;5.78;82.95
41800;BME280;27468;47.460;19.034;2023-04-08T01:23:38;100638.34;;;5.45;84.17
41800;BME280;27468;47.460;19.034;2023-04-08T01:26:05;100657.47;;;5.37;84.90
41800;BME280;27468;47.460;19.034;2023-04-08T01:28:32;100588.34;;;4.87;85.90
41800;BME280;27468;47.460;19.034;2023-04-08T01:31:00;100614.59;;;5.03;86.52
41800;BME280;27468;47.460;19.034;2023-04-08T01:33:27;100548.94;;;4.51;86.84
41800;BME280;27468;47.460;19.034;2023-04-08T01:35:53;100653.00;;;5.20;86.65
41800;BME280;27468;47.460;19.034;2023-04-08T01:38:22;100503.59;;;4.38;86.81
41800;BME280;27468;47.460;19.034;2023-04-08T01:40:49;100571.75;;;4.79;87.16
41800;BME280;27468;47.460;19.034;2023-04-08T01:43:17;100577.97;;;4.98;86.48
41800;BME280;27468;47.460;19.034;2023-04-08T01:45:44;100555.19;;;4.77;86.34
41800;BME280;27468;47.460;19.034;2023-04-08T01:48:11;100576.25;;;5.02;85.76
41800;BME280;27468;47.460;19.034;2023-04-08T01:50:40;100640.06;;;5.42;86.25
41800;BME280;27468;47.460;19.034;2023-04-08T01:53:07;100579.81;;;5.20;85.76
41800;BME280;27468;47.460;19.034;2023-04-08T01:55:34;100627.88;;;5.44;85.70
41800;BME280;27468;47.460;19.034;2023-04-08T01:58:01;100583.31;;;5.24;85.87
41800;BME280;27468;47.460;19.034;2023-04-08T02:00:30;100580.72;;;5.27;85.65
41800;BME280;27468;47.460;19.034;2023-04-08T02:02:56;100537.09;;;5.06;85.42
41800;BME280;27468;47.460;19.034;2023-04-08T02:05:22;100556.31;;;5.17;85.26
41800;BME280;27468;47.460;19.034;2023-04-08T02:07:48;100533.56;;;5.01;85.36
41800;BME280;27468;47.460;19.034;2023-04-08T02:10:14;100469.78;;;4.62;85.17
41800;BME280;27468;47.460;19.034;2023-04-08T02:12:41;100626.13;;;5.43;85.44
41800;BME280;27468;47.460;19.034;2023-04-08T02:15:08;100584.19;;;5.17;85.74
41800;BME280;27468;47.460;19.034;2023-04-08T02:20:06;100636.63;;;5.50;85.44
41800;BME280;27468;47.460;19.034;2023-04-08T02:25:29;100529.03;;;4.73;86.00
41800;BME280;27468;47.460;19.034;2023-04-08T02:27:55;100543.94;;;4.87;86.21
41800;BME280;27468;47.460;19.034;2023-04-08T02:30:22;100612.91;;;5.14;86.85
41800;BME280;27468;47.460;19.034;2023-04-08T02:32:50;100618.16;;;5.18;86.52
41800;BME280;27468;47.460;19.034;2023-04-08T02:35:18;100609.44;;;5.16;86.64
41800;BME280;27468;47.460;19.034;2023-04-08T02:37:45;100608.59;;;5.25;86.72
41800;BME280;27468;47.460;19.034;2023-04-08T02:40:26;100621.75;;;5.40;86.57
41800;BME280;27468;47.460;19.034;2023-04-08T02:42:52;100551.00;;;5.04;85.90
41800;BME280;27468;47.460;19.034;2023-04-08T02:45:18;100572.84;;;5.21;85.94
41800;BME280;27468;47.460;19.034;2023-04-08T02:47:43;100607.78;;;5.37;85.59
41800;BME280;27468;47.460;19.034;2023-04-08T02:50:09;100586.84;;;5.32;85.52
41800;BME280;27468;47.460;19.034;2023-04-08T02:52:35;100613.06;;;5.44;85.79
41800;BME280;27468;47.460;19.034;2023-04-08T02:55:00;100543.22;;;5.11;85.26
41800;BME280;27468;47.460;19.034;2023-04-08T02:57:25;100498.66;;;4.87;85.19
41800;BME280;27468;47.460;19.034;2023-04-08T02:59:51;100548.44;;;5.11;85.37
41800;BME280;27468;47.460;19.034;2023-04-08T03:02:16;100571.94;;;5.08;85.73
41800;BME280;27468;47.460;19.034;2023-04-08T03:04:42;100577.16;;;5.05;86.03
41800;BME280;27468;47.460;19.034;2023-04-08T03:07:07;100558.72;;;4.85;86.76
41800;BME280;27468;47.460;19.034;2023-04-08T03:09:33;100620.78;;;5.17;86.78
41800;BME280;27468;47.460;19.034;2023-04-08T03:11:58;100570.03;;;4.81;86.59
41800;BME280;27468;47.460;19.034;2023-04-08T03:14:24;100511.44;;;4.41;86.23
41800;BME280;27468;47.460;19.034;2023-04-08T03:16:49;100581.50;;;5.05;85.80
41800;BME280;27468;47.460;19.034;2023-04-08T03:19:15;100627.75;;;5.25;85.62
41800;BME280;27468;47.460;19.034;2023-04-08T03:21:40;100555.22;;;4.83;85.96
41800;BME280;27468;47.460;19.034;2023-04-08T03:24:06;100621.63;;;5.20;85.95
41800;BME280;27468;47.460;19.034;2023-04-08T03:26:31;100566.50;;;4.76;86.53
41800;BME280;27468;47.460;19.034;2023-04-08T03:28:57;100646.06;;;5.24;86.92
41800;BME280;27468;47.460;19.034;2023-04-08T03:31:22;100591.88;;;4.94;87.11
41800;BME280;27468;47.460;19.034;2023-04-08T03:33:48;100586.59;;;4.86;87.44
41800;BME280;27468;47.460;19.034;2023-04-08T03:36:13;100549.94;;;4.71;87.05
41800;BME280;27468;47.460;19.034;2023-04-08T03:38:38;100651.34;;;5.36;87.05
41800;BME280;27468;47.460;19.034;2023-04-08T03:41:04;100562.22;;;4.86;87.12
41800;BME280;27468;47.460;19.034;2023-04-08T03:43:30;100584.00;;;4.89;86.50
41800;BME280;27468;47.460;19.034;2023-04-08T03:45:55;100573.53;;;4.85;86.69
41800;BME280;27468;47.460;19.034;2023-04-08T03:48:22;100613.81;;;5.19;86.76
41800;BME280;27468;47.460;19.034;2023-04-08T03:50:47;100562.09;;;4.66;87.37
41800;BME280;27468;47.460;19.034;2023-04-08T03:53:13;100601.38;;;4.83;87.20
41800;BME280;27468;47.460;19.034;2023-04-08T03:55:38;100617.16;;;4.98;87.52
41800;BME280;27468;47.460;19.034;2023-04-08T03:58:04;100551.63;;;4.61;87.72
41800;BME280;27468;47.460;19.034;2023-04-08T04:00:29;100571.72;;;4.73;87.31
41800;BME280;27468;47.460;19.034;2023-04-08T04:02:55;100642.47;;;5.04;87.18
41800;BME280;27468;47.460;19.034;2023-04-08T04:05:21;100680.78;;;5.03;87.99
41800;BME280;27468;47.460;19.034;2023-04-08T04:07:46;100564.50;;;4.37;88.16
41800;BME280;27468;47.460;19.034;2023-04-08T04:10:11;100590.78;;;4.63;88.33
41800;BME280;27468;47.460;19.034;2023-04-08T04:12:37;100700.03;;;5.14;88.56
41800;BME280;27468;47.460;19.034;2023-04-08T04:15:03;100606.50;;;4.71;88.59
41800;BME280;27468;47.460;19.034;2023-04-08T04:17:29;100609.97;;;4.70;88.21
41800;BME280;27468;47.460;19.034;2023-04-08T04:19:54;100683.50;;;5.17;88.42
41800;BME280;27468;47.460;19.034;2023-04-08T04:22:20;100635.31;;;4.80;88.21
41800;BME280;27468;47.460;19.034;2023-04-08T04:24:47;100606.47;;;4.61;88.23
41800;BME280;27468;47.460;19.034;2023-04-08T04:27:13;100631.00;;;4.83;88.21
41800;BME280;27468;47.460;19.034;2023-04-08T04:29:38;100680.72;;;4.95;88.23
41800;BME280;27468;47.460;19.034;2023-04-08T04:32:03;100599.50;;;4.63;87.90
41800;BME280;27468;47.460;19.034;2023-04-08T04:34:29;100653.78;;;5.03;87.65
41800;BME280;27468;47.460;19.034;2023-04-08T04:36:54;100658.94;;;4.93;87.78
41800;BME280;27468;47.460;19.034;2023-04-08T04:39:20;100614.28;;;4.58;87.88
41800;BME280;27468;47.460;19.034;2023-04-08T04:41:46;100612.53;;;4.59;87.86
41800;BME280;27468;47.460;19.034;2023-04-08T04:44:13;100690.38;;;5.06;87.90
41800;BME280;27468;47.460;19.034;2023-04-08T04:46:38;100644.94;;;4.84;87.85
41800;BME280;27468;47.460;19.034;2023-04-08T04:49:04;100643.13;;;4.78;87.61
41800;BME280;27468;47.460;19.034;2023-04-08T04:51:32;100679.91;;;5.01;87.59
41800;BME280;27468;47.460;19.034;2023-04-08T04:53:57;100631.78;;;4.73;87.77
41800;BME280;27468;47.460;19.034;2023-04-08T04:56:23;100617.03;;;4.78;87.51
41800;BME280;27468;47.460;19.034;2023-04-08T04:58:50;100707.88;;;5.20;87.64
41800;BME280;27468;47.460;19.034;2023-04-08T05:01:16;100602.09;;;4.60;87.44
41800;BME280;27468;47.460;19.034;2023-04-08T05:03:41;100710.44;;;5.10;87.52
41800;BME280;27468;47.460;19.034;2023-04-08T05:06:06;100640.59;;;4.86;87.17
41800;BME280;27468;47.460;19.034;2023-04-08T05:08:32;100637.94;;;4.80;87.19
41800;BME280;27468;47.460;19.034;2023-04-08T05:10:57;100680.00;;;5.15;87.06
41800;BME280;27468;47.460;19.034;2023-04-08T05:13:29;100703.56;;;5.24;87.00
41800;BME280;27468;47.460;19.034;2023-04-08T05:15:54;100574.19;;;4.50;87.19
41800;BME280;27468;47.460;19.034;2023-04-08T05:18:19;100652.00;;;5.00;86.62
41800;BME280;27468;47.460;19.034;2023-04-08T05:20:45;100635.28;;;4.75;86.71
41800;BME280;27468;47.460;19.034;2023-04-08T05:23:11;100706.19;;;5.27;86.70
41800;BME280;27468;47.460;19.034;2023-04-08T05:25:37;100657.25;;;5.02;86.99
41800;BME280;27468;47.460;19.034;2023-04-08T05:28:03;100718.50;;;5.40;86.96
41800;BME280;27468;47.460;19.034;2023-04-08T05:30:29;100688.69;;;5.11;86.63
41800;BME280;27468;47.460;19.034;2023-04-08T05:32:55;100703.44;;;5.06;86.71
41800;BME280;27468;47.460;19.034;2023-04-08T05:35:20;100606.28;;;4.40;87.35
41800;BME280;27468;47.460;19.034;2023-04-08T05:37:46;100690.28;;;4.95;87.72
41800;BME280;27468;47.460;19.034;2023-04-08T05:40:11;100680.81;;;5.06;87.04
41800;BME280;27468;47.460;19.034;2023-04-08T05:42:36;100686.75;;;4.87;87.13
41800;BME280;27468;47.460;19.034;2023-04-08T05:45:02;100619.50;;;4.63;87.42
41800;BME280;27468;47.460;19.034;2023-04-08T05:47:28;100617.81;;;4.68;87.23
41800;BME280;27468;47.460;19.034;2023-04-08T05:49:53;100644.09;;;4.91;86.86
41800;BME280;27468;47.460;19.034;2023-04-08T05:52:19;100639.78;;;4.94;86.80
41800;BME280;27468;47.460;19.034;2023-04-08T05:54:44;100705.28;;;5.17;86.09
41800;BME280;27468;47.460;19.034;2023-04-08T05:57:10;100717.50;;;5.18;85.98
41800;BME280;27468;47.460;19.034;2023-04-08T05:59:36;100700.88;;;5.12;86.43
41800;BME280;27468;47.460;19.034;2023-04-08T06:02:02;100745.53;;;5.44;85.99
41800;BME280;27468;47.460;19.034;2023-04-08T06:04:27;100710.59;;;5.36;85.81
41800;BME280;27468;47.460;19.034;2023-04-08T06:06:53;100713.28;;;5.45;85.57
41800;BME280;27468;47.460;19.034;2023-04-08T06:09:18;100662.59;;;5.17;85.20
41800;BME280;27468;47.460;19.034;2023-04-08T06:11:43;100731.69;;;5.57;85.04
41800;BME280;27468;47.460;19.034;2023-04-08T06:14:11;100684.41;;;5.28;85.01
41800;BME280;27468;47.460;19.034;2023-04-08T06:16:36;100713.28;;;5.42;84.96
41800;BME280;27468;47.460;19.034;2023-04-08T06:19:02;100704.56;;;5.41;84.86
41800;BME280;27468;47.460;19.034;2023-04-08T06:21:27;100673.97;;;5.29;84.79
41800;BME280;27468;47.460;19.034;2023-04-08T06:23:53;100709.00;;;5.57;84.72
41800;BME280;27468;47.460;19.034;2023-04-08T06:26:18;100769.38;;;5.89;84.79
41800;BME280;27468;47.460;19.034;2023-04-08T06:28:44;100729.13;;;5.68;84.61
41800;BME280;27468;47.460;19.034;2023-04-08T06:31:09;100746.59;;;5.81;84.86
41800;BME280;27468;47.460;19.034;2023-04-08T06:33:34;100731.78;;;5.74;84.66
41800;BME280;27468;47.460;19.034;2023-04-08T06:36:01;100651.25;;;5.15;84.25
41800;BME280;27468;47.460;19.034;2023-04-08T06:38:28;100763.94;;;5.59;83.46
41800;BME280;27468;47.460;19.034;2023-04-08T06:40:53;100713.13;;;5.22;83.85
41800;BME280;27468;47.460;19.034;2023-04-08T06:43:19;100682.28;;;4.75;84.62
41800;BME280;27468;47.460;19.034;2023-04-08T06:45:44;100696.25;;;4.79;85.21
41800;BME280;27468;47.460;19.034;2023-04-08T06:48:10;100776.75;;;5.24;85.55
41800;BME280;27468;47.460;19.034;2023-04-08T06:50:36;100716.34;;;4.86;86.18
41800;BME280;27468;47.460;19.034;2023-04-08T06:53:01;100686.50;;;4.55;86.42
41800;BME280;27468;47.460;19.034;2023-04-08T06:55:27;100750.47;;;5.04;86.18
41800;BME280;27468;47.460;19.034;2023-04-08T06:57:52;100767.78;;;4.93;87.06
41800;BME280;27468;47.460;19.034;2023-04-08T07:00:17;100691.84;;;4.73;86.95
41800;BME280;27468;47.460;19.034;2023-04-08T07:02:43;100675.38;;;4.80;86.43
41800;BME280;27468;47.460;19.034;2023-04-08T07:05:09;100670.22;;;4.89;86.04
41800;BME280;27468;47.460;19.034;2023-04-08T07:07:35;100699.03;;;5.00;86.44
41800;BME280;27468;47.460;19.034;2023-04-08T07:10:00;100695.63;;;5.07;86.47
41800;BME280;27468;47.460;19.034;2023-04-08T07:12:25;100703.53;;;5.22;86.36
41800;BME280;27468;47.460;19.034;2023-04-08T07:14:51;100706.22;;;5.30;86.24
41800;BME280;27468;47.460;19.034;2023-04-08T07:17:17;100701.78;;;5.21;85.80
41800;BME280;27468;47.460;19.034;2023-04-08T07:19:42;100757.69;;;5.39;85.87
41800;BME280;27468;47.460;19.034;2023-04-08T07:22:08;100763.78;;;5.38;86.07
41800;BME280;27468;47.460;19.034;2023-04-08T07:24:34;100726.28;;;5.32;85.83
41800;BME280;27468;47.460;19.034;2023-04-08T07:26:59;100710.56;;;5.31;86.01
41800;BME280;27468;47.460;19.034;2023-04-08T07:29:24;100767.38;;;5.50;85.98
41800;BME280;27468;47.460;19.034;2023-04-08T07:31:50;100695.72;;;5.24;85.45
41800;BME280;27468;47.460;19.034;2023-04-08T07:34:16;100726.38;;;5.45;85.42
41800;BME280;27468;47.460;19.034;2023-04-08T07:36:41;100732.47;;;5.45;85.77
41800;BME280;27468;47.460;19.034;2023-04-08T07:39:06;100746.47;;;5.52;85.65
41800;BME280;27468;47.460;19.034;2023-04-08T07:41:32;100692.28;;;5.29;85.42
41800;BME280;27468;47.460;19.034;2023-04-08T07:43:57;100742.16;;;5.58;85.74
41800;BME280;27468;47.460;19.034;2023-04-08T07:46:23;100768.31;;;5.61;85.53
41800;BME280;27468;47.460;19.034;2023-04-08T07:48:48;100773.50;;;5.55;85.63
41800;BME280;27468;47.460;19.034;2023-04-08T07:51:14;100747.38;;;5.60;85.76
41800;BME280;27468;47.460;19.034;2023-04-08T07:53:39;100771.00;;;5.69;86.27
41800;BME280;27468;47.460;19.034;2023-04-08T07:56:13;100764.06;;;5.82;86.27
41800;BME280;27468;47.460;19.034;2023-04-08T07:58:38;100816.66;;;6.18;85.58
41800;BME280;27468;47.460;19.034;2023-04-08T08:01:17;100762.25;;;5.67;84.63
41800;BME280;27468;47.460;19.034;2023-04-08T08:03:43;100820.94;;;6.07;85.17
41800;BME280;27468;47.460;19.034;2023-04-08T08:06:13;100767.56;;;5.84;84.96
41800;BME280;27468;47.460;19.034;2023-04-08T08:08:38;100832.34;;;6.17;84.57
41800;BME280;27468;47.460;19.034;2023-04-08T08:11:04;100774.56;;;5.88;84.39
41800;BME280;27468;47.460;19.034;2023-04-08T08:13:29;100789.50;;;6.04;84.36
41800;BME280;27468;47.460;19.034;2023-04-08T08:15:55;100852.50;;;6.35;84.48
41800;BME280;27468;47.460;19.034;2023-04-08T08:18:21;100821.94;;;6.32;84.50
41800;BME280;27468;47.460;19.034;2023-04-08T08:20:47;100807.03;;;6.14;84.06
41800;BME280;27468;47.460;19.034;2023-04-08T08:23:12;100811.34;;;6.06;84.00
41800;BME280;27468;47.460;19.034;2023-04-08T08:25:38;100757.84;;;5.58;83.91
41800;BME280;27468;47.460;19.034;2023-04-08T08:28:03;100777.94;;;5.66;84.49
41800;BME280;27468;47.460;19.034;2023-04-08T08:30:29;100804.13;;;5.70;84.55
41800;BME280;27468;47.460;19.034;2023-04-08T08:32:54;100713.97;;;5.13;85.05
41800;BME280;27468;47.460;19.034;2023-04-08T08:35:23;100816.38;;;5.79;84.89
41800;BME280;27468;47.460;19.034;2023-04-08T08:37:49;100809.41;;;5.81;84.70
41800;BME280;27468;47.460;19.034;2023-04-08T08:40:14;100850.38;;;5.80;85.46
41800;BME280;27468;47.460;19.034;2023-04-08T08:42:41;100763.88;;;5.51;85.26
41800;BME280;27468;47.460;19.034;2023-04-08T08:45:07;100721.97;;;5.41;85.39
41800;BME280;27468;47.460;19.034;2023-04-08T08:47:33;100776.28;;;5.77;85.12
41800;BME280;27468;47.460;19.034;2023-04-08T08:49:58;100752.56;;;5.54;84.66
41800;BME280;27468;47.460;19.034;2023-04-08T08:52:24;100742.22;;;5.71;84.19
41800;BME280;27468;47.460;19.034;2023-04-08T08:54:58;100835.00;;;6.24;84.12
41800;BME280;27468;47.460;19.034;2023-04-08T08:57:24;100821.97;;;6.35;83.97
41800;BME280;27468;47.460;19.034;2023-04-08T08:59:49;100796.63;;;6.26;83.70
41800;BME280;27468;47.460;19.034;2023-04-08T09:02:29;100797.50;;;6.27;83.48
41800;BME280;27468;47.460;19.034;2023-04-08T09:05:00;100866.63;;;6.70;83.10
41800;BME280;27468;47.460;19.034;2023-04-08T09:07:27;100853.38;;;6.35;82.99
41800;BME280;27468;47.460;19.034;2023-04-08T09:09:54;100772.72;;;5.67;82.55
41800;BME280;27468;47.460;19.034;2023-04-08T09:12:20;100825.25;;;5.96;83.29
41800;BME280;27468;47.460;19.034;2023-04-08T09:14:46;100788.47;;;5.81;83.36
41800;BME280;27468;47.460;19.034;2023-04-08T09:17:12;100859.28;;;6.01;82.20
41800;BME280;27468;47.460;19.034;2023-04-08T09:19:38;100849.72;;;6.07;83.26
41800;BME280;27468;47.460;19.034;2023-04-08T09:22:08;100875.22;;;6.34;82.99
41800;BME280;27468;47.460;19.034;2023-04-08T09:24:35;100799.78;;;5.78;82.98
41800;BME280;27468;47.460;19.034;2023-04-08T09:27:04;100853.16;;;5.95;82.60
41800;BME280;27468;47.460;19.034;2023-04-08T09:29:30;100829.44;;;5.74;82.19
41800;BME280;27468;47.460;19.034;2023-04-08T09:31:58;100841.72;;;5.87;82.39
41800;BME280;27468;47.460;19.034;2023-04-08T09:34:24;100894.31;;;6.19;83.02
41800;BME280;27468;47.460;19.034;2023-04-08T09:36:52;100813.69;;;5.67;83.15
41800;BME280;27468;47.460;19.034;2023-04-08T09:39:18;100851.38;;;5.93;83.64
41800;BME280;27468;47.460;19.034;2023-04-08T09:41:43;100809.28;;;5.59;83.69
41800;BME280;27468;47.460;19.034;2023-04-08T09:44:12;100829.47;;;5.83;84.07
41800;BME280;27468;47.460;19.034;2023-04-08T09:52:03;100807.03;;;6.14;83.17
41800;BME280;27468;47.460;19.034;2023-04-08T09:55:21;100835.88;;;6.25;82.18
41800;BME280;27468;47.460;19.034;2023-04-08T10:00:14;100871.56;;;6.08;81.69
41800;BME280;27468;47.460;19.034;2023-04-08T10:03:06;100859.25;;;5.96;81.15
41800;BME280;27468;47.460;19.034;2023-04-08T10:05:40;100900.44;;;6.21;81.02
41800;BME280;27468;47.460;19.034;2023-04-08T10:08:06;100891.69;;;6.18;81.41
41800;BME280;27468;47.460;19.034;2023-04-08T10:10:37;100892.66;;;6.41;81.30
41800;BME280;27468;47.460;19.034;2023-04-08T10:13:03;100745.75;;;5.76;80.13
41800;BME280;27468;47.460;19.034;2023-04-08T10:15:33;100830.66;;;6.36;79.79
41800;BME280;27468;47.460;19.034;2023-04-08T10:23:08;100905.13;;;6.89;78.35
41800;BME280;27468;47.460;19.034;2023-04-08T10:28:01;100835.13;;;6.59;77.02
41800;BME280;27468;47.460;19.034;2023-04-08T10:30:48;100894.66;;;7.06;77.77
41800;BME280;27468;47.460;19.034;2023-04-08T10:33:32;100893.84;;;7.19;77.22
41800;BME280;27468;47.460;19.034;2023-04-08T10:36:11;100885.09;;;7.26;77.59
41800;BME280;27468;47.460;19.034;2023-04-08T10:38:40;100814.28;;;6.93;77.14
41800;BME280;27468;47.460;19.034;2023-04-08T10:41:07;100874.63;;;7.26;76.85
41800;BME280;27468;47.460;19.034;2023-04-08T10:43:34;100866.72;;;7.14;75.69
41800;BME280;27468;47.460;19.034;2023-04-08T10:46:00;100875.41;;;6.95;76.43
41800;BME280;27468;47.460;19.034;2023-04-08T10:48:26;100819.38;;;6.49;76.45
41800;BME280;27468;47.460;19.034;2023-04-08T10:50:59;100903.38;;;6.85;76.14
41800;BME280;27468;47.460;19.034;2023-04-08T10:53:29;100786.13;;;6.23;76.59
41800;BME280;27468;47.460;19.034;2023-04-08T10:56:12;100800.88;;;6.06;77.29
41800;BME280;27468;47.460;19.034;2023-04-08T10:58:53;100882.28;;;6.56;77.25
41800;BME280;27468;47.460;19.034;2023-04-08T11:01:20;100862.25;;;6.74;76.79
41800;BME280;27468;47.460;19.034;2023-04-08T11:03:46;100808.09;;;6.65;76.10
41800;BME280;27468;47.460;19.034;2023-04-08T11:06:11;100872.00;;;7.26;76.40
41800;BME280;27468;47.460;19.034;2023-04-08T11:08:37;100895.59;;;7.54;76.38
41800;BME280;27468;47.460;19.034;2023-04-08T11:11:06;100859.78;;;7.41;76.10
41800;BME280;27468;47.460;19.034;2023-04-08T11:13:44;100899.13;;;7.44;75.18
41800;BME280;27468;47.460;19.034;2023-04-08T11:16:11;100835.25;;;7.10;75.36
41800;BME280;27468;47.460;19.034;2023-04-08T11:18:39;100882.50;;;7.42;75.46
41800;BME280;27468;47.460;19.034;2023-04-08T11:21:11;100790.63;;;6.72;74.59
41800;BME280;27468;47.460;19.034;2023-04-08T11:23:36;100843.13;;;7.13;75.34
41800;BME280;27468;47.460;19.034;2023-04-08T11:26:02;100872.00;;;7.42;74.63
41800;BME280;27468;47.460;19.034;2023-04-08T11:28:28;100827.38;;;7.11;74.76
41800;BME280;27468;47.460;19.034;2023-04-08T11:30:54;100823.00;;;7.01;75.09
41800;BME280;27468;47.460;19.034;2023-04-08T11:33:20;100878.16;;;7.48;75.28
41800;BME280;27468;47.460;19.034;2023-04-08T11:35:49;100909.63;;;7.73;75.57
41800;BME280;27468;47.460;19.034;2023-04-08T11:38:16;100827.41;;;7.34;75.19
41800;BME280;27468;47.460;19.034;2023-04-08T11:40:52;100829.13;;;7.17;74.22
41800;BME280;27468;47.460;19.034;2023-04-08T11:43:18;100858.91;;;7.42;74.34
41800;BME280;27468;47.460;19.034;2023-04-08T11:45:44;100843.16;;;7.36;73.83
41800;BME280;27468;47.460;19.034;2023-04-08T11:48:14;100907.00;;;7.76;74.15
41800;BME280;27468;47.460;19.034;2023-04-08T11:50:41;100888.63;;;7.65;74.30
41800;BME280;27468;47.460;19.034;2023-04-08T11:55:42;100887.75;;;7.45;73.95
41800;BME280;27468;47.460;19.034;2023-04-08T11:58:07;100825.63;;;6.89;73.59
41800;BME280;27468;47.460;19.034;2023-04-08T12:00:33;100817.75;;;6.83;73.99
41800;BME280;27468;47.460;19.034;2023-04-08T12:02:58;100879.88;;;7.37;75.23
41800;BME280;27468;47.460;19.034;2023-04-08T12:05:24;100879.00;;;7.53;75.05
41800;BME280;27468;47.460;19.034;2023-04-08T12:07:50;100871.13;;;7.56;75.41
41800;BME280;27468;47.460;19.034;2023-04-08T12:10:15;100902.63;;;7.70;74.67
41800;BME280;27468;47.460;19.034;2023-04-08T12:12:41;100809.94;;;7.30;74.67
41800;BME280;27468;47.460;19.034;2023-04-08T12:15:07;100858.88;;;7.54;74.65
41800;BME280;27468;47.460;19.034;2023-04-08T12:17:33;100802.91;;;7.11;73.92
41800;BME280;27468;47.460;19.034;2023-04-08T12:19:59;100830.91;;;7.27;75.01
41800;BME280;27468;47.460;19.034;2023-04-08T12:22:25;100897.34;;;7.55;74.45
41800;BME280;27468;47.460;19.034;2023-04-08T12:24:50;100824.78;;;7.26;75.23
41800;BME280;27468;47.460;19.034;2023-04-08T12:27:16;100844.00;;;7.54;75.38
41800;BME280;27468;47.460;19.034;2023-04-08T12:29:41;100752.22;;;7.21;75.06
41800;BME280;27468;47.460;19.034;2023-04-08T12:32:07;100841.38;;;7.83;73.82
41800;BME280;27468;47.460;19.034;2023-04-08T12:34:33;100893.78;;;8.32;73.92
41800;BME280;27468;47.460;19.034;2023-04-08T12:36:59;100793.28;;;7.61;72.71
41800;BME280;27468;47.460;19.034;2023-04-08T12:39:24;100851.00;;;7.80;70.88
41800;BME280;27468;47.460;19.034;2023-04-08T12:41:50;100863.25;;;7.70;71.24
41800;BME280;27468;47.460;19.034;2023-04-08T12:44:16;100890.38;;;7.92;71.61
41800;BME280;27468;47.460;19.034;2023-04-08T12:46:41;100791.56;;;7.42;71.62
41800;BME280;27468;47.460;19.034;2023-04-08T12:49:07;100906.06;;;8.18;72.22
41800;BME280;27468;47.460;19.034;2023-04-08T12:51:33;100894.69;;;8.37;72.49
41800;BME280;27468;47.460;19.034;2023-04-08T12:54:00;100864.91;;;8.40;72.52
41800;BME280;27468;47.460;19.034;2023-04-08T12:56:26;100781.88;;;7.85;70.71
41800;BME280;27468;47.460;19.034;2023-04-08T12:58:51;100891.13;;;8.58;70.89
41800;BME280;27468;47.460;19.034;2023-04-08T13:01:16;100859.59;;;8.53;71.74
41800;BME280;27468;47.460;19.034;2023-04-08T13:03:42;100831.56;;;8.52;71.81
41800;BME280;27468;47.460;19.034;2023-04-08T13:06:07;100892.66;;;9.03;71.32
41800;BME280;27468;47.460;19.034;2023-04-08T13:08:33;100855.88;;;8.94;70.40
41800;BME280;27468;47.460;19.034;2023-04-08T13:10:58;100807.78;;;8.75;69.75
41800;BME280;27468;47.460;19.034;2023-04-08T13:13:23;100821.72;;;8.89;70.03